createdAt,value
2023-04-11T00:02:23.109Z,54.97
2023-04-11T00:05:24.885Z,55.04
2023-04-11T00:08:26.490Z,55.09
2023-04-11T00:11:28.237Z,55.02
2023-04-11T00:14:32.375Z,55.09
2023-04-11T00:17:34.016Z,55.22
2023-04-11T00:20:35.662Z,55.28
2023-04-11T00:23:37.268Z,55.48
2023-04-11T00:26:38.872Z,55.84
2023-04-11T00:29:44.811Z,56.04
2023-04-11T00:32:47.638Z,56.30
2023-04-11T00:35:49.341Z,56.58
2023-04-11T00:38:50.922Z,56.76
2023-04-11T00:41:52.600Z,56.95
2023-04-11T00:44:54.255Z,57.00
2023-04-11T00:47:55.907Z,56.95
2023-04-11T00:50:57.620Z,57.11
2023-04-11T00:54:01.313Z,57.17
2023-04-11T00:57:04.389Z,57.21
2023-04-11T01:00:09.786Z,57.27
2023-04-11T01:03:12.190Z,57.35
2023-04-11T01:06:14.628Z,57.39
2023-04-11T01:09:16.944Z,57.47
2023-04-11T01:12:18.628Z,57.61
2023-04-11T01:15:21.445Z,57.63
2023-04-11T01:18:23.096Z,57.77
2023-04-11T01:21:24.674Z,57.76
2023-04-11T01:24:26.735Z,57.97
2023-04-11T01:27:28.700Z,58.09
2023-04-11T01:30:30.467Z,58.23
2023-04-11T01:33:32.271Z,58.43
2023-04-11T01:36:34.872Z,58.68
2023-04-11T01:39:36.546Z,58.86
2023-04-11T01:42:38.416Z,58.88
2023-04-11T01:45:41.024Z,58.91
2023-04-11T01:48:43.405Z,58.89
2023-04-11T01:51:46.039Z,58.86
2023-04-11T01:54:47.825Z,58.88
2023-04-11T01:57:49.486Z,58.86
2023-04-11T02:00:51.247Z,58.75
2023-04-11T02:03:55.090Z,58.81
2023-04-11T02:06:56.726Z,58.75
2023-04-11T02:09:59.070Z,58.93
2023-04-11T02:13:01.103Z,58.94
2023-04-11T02:16:11.750Z,59.05
2023-04-11T02:19:13.440Z,59.19
2023-04-11T02:22:15.606Z,59.17
2023-04-11T02:25:17.334Z,59.40
2023-04-11T02:28:18.882Z,59.43
2023-04-11T02:31:21.170Z,59.54
2023-04-11T02:34:22.909Z,59.55
2023-04-11T02:37:26.166Z,59.53
2023-04-11T02:40:27.908Z,59.47
2023-04-11T02:43:29.467Z,59.51
2023-04-11T02:46:31.260Z,59.53
2023-04-11T02:49:33.639Z,59.46
2023-04-11T02:52:37.682Z,59.24
2023-04-11T02:55:39.295Z,59.41
2023-04-11T02:58:42.076Z,59.44
2023-04-11T03:01:47.504Z,59.31
2023-04-11T03:04:49.563Z,59.24
2023-04-11T03:07:52.680Z,59.26
2023-04-11T03:10:54.698Z,59.39
2023-04-11T03:13:57.544Z,59.45
2023-04-11T03:16:59.224Z,59.58
2023-04-11T03:20:01.695Z,59.75
2023-04-11T03:23:04.815Z,59.89
2023-04-11T03:26:07.367Z,60.08
2023-04-11T03:29:09.087Z,60.18
2023-04-11T03:32:17.937Z,60.36
2023-04-11T03:35:20.590Z,60.20
2023-04-11T03:38:25.870Z,60.24
2023-04-11T03:41:27.642Z,60.21
2023-04-11T03:44:29.964Z,60.32
2023-04-11T03:47:32.346Z,60.21
2023-04-11T03:50:35.338Z,60.19
2023-04-11T03:53:37.314Z,60.18
2023-04-11T03:56:49.157Z,60.17
2023-04-11T03:59:58.724Z,60.12
2023-04-11T04:03:00.789Z,60.13
2023-04-11T04:06:02.807Z,60.11
2023-04-11T04:09:04.700Z,60.14
2023-04-11T04:12:17.974Z,60.17
2023-04-11T04:15:38.452Z,60.38
2023-04-11T04:18:40.771Z,60.38
2023-04-11T04:21:43.293Z,60.59
2023-04-11T04:24:48.328Z,60.79
2023-04-11T04:27:58.184Z,60.92
2023-04-11T04:31:02.312Z,60.83
2023-04-11T04:34:10.071Z,60.80
2023-04-11T04:37:24.483Z,60.84
2023-04-11T04:40:32.809Z,60.72
2023-04-11T04:43:41.951Z,60.72
2023-04-11T04:46:48.195Z,60.73
2023-04-11T04:49:54.966Z,60.70
2023-04-11T04:52:56.508Z,60.66
2023-04-11T04:55:58.277Z,60.66
2023-04-11T04:59:01.924Z,60.67
2023-04-11T05:02:04.748Z,60.74
2023-04-11T05:05:07.868Z,60.74
2023-04-11T05:08:09.826Z,60.85
2023-04-11T05:11:12.334Z,60.75
2023-04-11T05:14:14.143Z,60.73
2023-04-11T05:17:16.333Z,60.65
2023-04-11T05:20:18.061Z,60.53
2023-04-11T05:23:21.026Z,60.69
2023-04-11T05:26:23.248Z,60.69
2023-04-11T05:29:26.037Z,60.75
2023-04-11T05:32:28.340Z,60.82
2023-04-11T05:35:30.088Z,60.98
2023-04-11T05:38:35.643Z,60.93
2023-04-11T05:41:37.317Z,61.02
2023-04-11T05:44:40.239Z,60.93
2023-04-11T05:47:42.004Z,61.06
2023-04-11T05:50:43.632Z,61.01
2023-04-11T05:53:45.731Z,61.15
2023-04-11T05:56:47.307Z,61.04
2023-04-11T05:59:50.025Z,61.05
2023-04-11T06:02:53.072Z,60.91
2023-04-11T06:05:54.765Z,60.92
2023-04-11T06:08:56.375Z,60.86
2023-04-11T06:11:58.000Z,60.82
2023-04-11T06:15:00.058Z,60.96
2023-04-11T06:18:01.823Z,60.96
2023-04-11T06:21:03.640Z,60.87
2023-04-11T06:24:09.104Z,60.78
2023-04-11T06:27:10.990Z,60.68
2023-04-11T06:30:13.076Z,60.41
2023-04-11T06:33:16.254Z,60.22
2023-04-11T06:36:17.936Z,59.92
2023-04-11T06:39:20.249Z,59.73
2023-04-11T06:42:21.764Z,59.69
2023-04-11T06:45:26.575Z,59.41
2023-04-11T06:48:28.243Z,59.27
2023-04-11T06:51:30.005Z,58.96
2023-04-11T06:54:31.600Z,58.85
2023-04-11T06:57:33.208Z,58.55
2023-04-11T07:00:34.900Z,58.42
2023-04-11T07:03:37.096Z,58.37
2023-04-11T07:06:39.826Z,58.27
2023-04-11T07:09:41.519Z,58.27
2023-04-11T07:12:43.117Z,58.06
2023-04-11T07:15:44.763Z,57.87
2023-04-11T07:18:46.399Z,57.55
2023-04-11T07:21:48.919Z,57.39
2023-04-11T07:24:55.377Z,57.05
2023-04-11T07:27:57.157Z,56.63
2023-04-11T07:30:58.862Z,56.33
2023-04-11T07:34:00.476Z,55.97
2023-04-11T07:37:02.475Z,55.65
2023-04-11T07:40:09.859Z,55.42
2023-04-11T07:43:11.446Z,55.14
2023-04-11T07:46:15.202Z,54.58
2023-04-11T07:49:16.990Z,54.11
2023-04-11T07:52:18.515Z,53.62
2023-04-11T07:55:20.067Z,53.29
2023-04-11T07:58:22.397Z,52.97
2023-04-11T08:01:25.647Z,52.52
2023-04-11T08:04:32.729Z,52.05
2023-04-11T08:07:34.662Z,51.58
2023-04-11T08:10:36.259Z,51.22
2023-04-11T08:13:37.923Z,51.07
2023-04-11T08:16:39.543Z,50.84
2023-04-11T08:19:41.217Z,50.72
2023-04-11T08:22:46.931Z,50.39
2023-04-11T08:25:48.747Z,50.09
2023-04-11T08:28:50.410Z,49.77
2023-04-11T08:31:51.940Z,49.47
2023-04-11T08:34:53.468Z,49.18
2023-04-11T08:37:55.148Z,48.87
2023-04-11T08:40:56.816Z,48.54
2023-04-11T08:43:59.004Z,48.38
2023-04-11T08:47:00.911Z,48.00
2023-04-11T08:50:03.768Z,47.72
2023-04-11T08:53:08.365Z,47.38
2023-04-11T08:56:15.106Z,47.17
2023-04-11T08:59:17.544Z,46.93
2023-04-11T09:02:19.601Z,46.63
2023-04-11T09:05:35.205Z,46.42
2023-04-11T09:08:39.800Z,46.02
2023-04-11T09:11:54.590Z,45.74
2023-04-11T09:14:56.242Z,45.42
2023-04-11T09:18:00.622Z,45.18
2023-04-11T09:21:05.253Z,45.08
2023-04-11T09:24:16.934Z,45.06
2023-04-11T09:27:20.384Z,44.53
2023-04-11T09:30:24.176Z,44.29
2023-04-11T09:33:28.677Z,44.05
2023-04-11T09:36:30.769Z,43.91
2023-04-11T09:39:32.756Z,43.87
2023-04-11T09:42:34.719Z,43.70
2023-04-11T09:45:53.591Z,43.45
2023-04-11T09:49:01.618Z,43.24
2023-04-11T09:52:03.935Z,43.06
2023-04-11T09:55:08.089Z,42.65
2023-04-11T09:58:10.202Z,42.50
2023-04-11T10:01:11.954Z,42.49
2023-04-11T10:04:14.638Z,42.26
2023-04-11T10:07:17.106Z,42.02
2023-04-11T10:10:20.411Z,41.92
2023-04-11T10:13:46.855Z,41.84
2023-04-11T10:17:11.351Z,41.60
2023-04-11T10:20:42.761Z,41.48
2023-04-11T10:24:07.074Z,41.28
2023-04-11T10:27:08.647Z,41.32
2023-04-11T10:30:10.674Z,41.24
2023-04-11T10:33:17.622Z,41.03
2023-04-11T10:36:20.798Z,40.80
2023-04-11T10:39:52.081Z,40.82
2023-04-11T10:42:53.691Z,40.66
2023-04-11T10:46:19.801Z,40.41
2023-04-11T10:49:40.918Z,40.42
2023-04-11T10:52:42.514Z,39.94
2023-04-11T10:55:48.810Z,39.94
2023-04-11T10:58:51.923Z,39.46
2023-04-11T11:01:56.570Z,39.23
2023-04-11T11:04:59.262Z,39.24
2023-04-11T11:08:01.069Z,38.95
2023-04-11T11:11:04.468Z,39.10
2023-04-11T11:14:06.001Z,39.01
2023-04-11T11:17:08.921Z,38.97
2023-04-11T11:20:19.731Z,39.04
2023-04-11T11:23:21.383Z,38.88
2023-04-11T11:26:24.764Z,38.88
2023-04-11T11:29:36.020Z,38.79
2023-04-11T11:32:37.698Z,38.68
2023-04-11T11:35:39.360Z,38.67
2023-04-11T11:38:41.001Z,38.53
2023-04-11T11:41:42.655Z,38.37
2023-04-11T11:44:44.363Z,38.24
2023-04-11T11:47:46.981Z,38.33
2023-04-11T11:50:55.259Z,37.94
2023-04-11T11:54:10.303Z,37.85
2023-04-11T11:57:11.911Z,37.74
2023-04-11T12:00:15.054Z,37.63
2023-04-11T12:03:24.398Z,37.61
2023-04-11T12:06:31.594Z,37.67
2023-04-11T12:09:33.571Z,37.67
2023-04-11T12:12:38.645Z,37.25
2023-04-11T12:15:41.980Z,37.26
2023-04-11T12:18:43.513Z,37.36
2023-04-11T12:21:45.163Z,37.33
2023-04-11T12:24:46.727Z,37.24
2023-04-11T12:27:48.779Z,37.19
2023-04-11T12:30:50.393Z,37.05
2023-04-11T12:33:51.976Z,37.00
2023-04-11T12:36:53.581Z,37.13
2023-04-11T12:39:55.230Z,36.95
2023-04-11T12:42:57.646Z,36.63
2023-04-11T12:45:59.414Z,36.59
2023-04-11T12:49:01.243Z,36.58
2023-04-11T12:52:03.103Z,36.48
2023-04-11T12:55:05.729Z,36.47
2023-04-11T12:58:09.498Z,36.47
2023-04-11T13:01:11.374Z,36.56
2023-04-11T13:04:13.290Z,36.60
2023-04-11T13:07:15.023Z,36.39
2023-04-11T13:10:16.953Z,36.51
2023-04-11T13:13:19.020Z,36.56
2023-04-11T13:16:21.307Z,36.64
2023-04-11T13:19:23.716Z,36.71
2023-04-11T13:22:27.193Z,36.78
2023-04-11T13:25:28.799Z,36.87
2023-04-11T13:28:30.401Z,36.88
2023-04-11T13:31:32.513Z,36.87
2023-04-11T13:34:34.283Z,36.93
2023-04-11T13:37:35.853Z,36.95
2023-04-11T13:40:39.502Z,36.90
2023-04-11T13:43:41.208Z,36.87
2023-04-11T13:46:42.760Z,37.09
2023-04-11T13:49:44.800Z,37.26
2023-04-11T13:52:46.550Z,37.54
2023-04-11T13:55:49.189Z,37.51
2023-04-11T13:58:51.634Z,37.58
2023-04-11T14:01:53.336Z,37.62
2023-04-11T14:04:55.047Z,37.68
2023-04-11T14:07:57.753Z,37.72
2023-04-11T14:10:59.372Z,37.97
2023-04-11T14:14:01.187Z,38.19
2023-04-11T14:17:04.986Z,38.27
2023-04-11T14:20:07.606Z,38.33
2023-04-11T14:23:10.858Z,38.46
2023-04-11T14:26:12.368Z,38.63
2023-04-11T14:29:14.063Z,38.60
2023-04-11T14:32:16.014Z,38.76
2023-04-11T14:35:17.628Z,38.94
2023-04-11T14:38:19.242Z,39.17
2023-04-11T14:41:25.735Z,39.33
2023-04-11T14:44:28.084Z,39.39
2023-04-11T14:47:31.098Z,39.43
2023-04-11T14:50:32.852Z,39.42
2023-04-11T14:53:34.454Z,39.48
2023-04-11T14:56:36.508Z,39.42
2023-04-11T14:59:38.084Z,39.54
2023-04-11T15:02:39.799Z,39.56
2023-04-11T15:05:41.541Z,39.43
2023-04-11T15:08:43.190Z,39.48
2023-04-11T15:11:44.777Z,39.41
2023-04-11T15:14:46.350Z,39.28
2023-04-11T15:17:49.445Z,39.11
2023-04-11T15:20:52.596Z,38.93
2023-04-11T15:23:54.447Z,38.71
2023-04-11T15:26:56.904Z,38.67
2023-04-11T15:29:59.652Z,38.51
2023-04-11T15:33:01.249Z,38.44
2023-04-11T15:36:03.170Z,38.38
2023-04-11T15:39:05.232Z,38.39
2023-04-11T15:42:07.127Z,38.36
2023-04-11T15:45:09.301Z,38.33
2023-04-11T15:48:14.224Z,38.38
2023-04-11T15:51:17.228Z,38.36
2023-04-11T15:54:18.869Z,37.78
2023-04-11T15:57:20.510Z,37.20
2023-04-11T16:00:22.636Z,36.81
2023-04-11T16:03:31.394Z,36.41
2023-04-11T16:06:33.412Z,36.30
2023-04-11T16:09:35.500Z,36.00
2023-04-11T16:12:37.385Z,35.84
2023-04-11T16:15:38.991Z,35.25
2023-04-11T16:18:40.609Z,35.04
2023-04-11T16:21:43.016Z,35.33
2023-04-11T16:24:45.147Z,35.45
2023-04-11T16:27:47.804Z,35.43
2023-04-11T16:30:49.517Z,35.44
2023-04-11T16:33:52.697Z,35.25
2023-04-11T16:36:56.810Z,35.61
2023-04-11T16:39:58.544Z,35.49
2023-04-11T16:43:00.232Z,35.72
2023-04-11T16:46:01.778Z,35.91
2023-04-11T16:49:03.801Z,35.78
2023-04-11T16:52:05.443Z,35.95
2023-04-11T16:55:07.514Z,36.17
2023-04-11T16:58:10.379Z,36.13
2023-04-11T17:01:12.897Z,36.36
2023-04-11T17:04:14.745Z,36.43
2023-04-11T17:07:16.650Z,36.51
2023-04-11T17:10:18.417Z,36.66
2023-04-11T17:13:19.998Z,36.99
2023-04-11T17:16:21.701Z,37.01
2023-04-11T17:19:24.500Z,37.08
2023-04-11T17:22:27.163Z,37.34
2023-04-11T17:25:30.165Z,37.61
2023-04-11T17:28:32.981Z,37.87
2023-04-11T17:31:34.614Z,37.96
2023-04-11T17:34:36.676Z,37.95
2023-04-11T17:37:39.630Z,38.22
2023-04-11T17:40:41.542Z,38.45
2023-04-11T17:43:43.819Z,38.71
2023-04-11T17:46:45.703Z,38.71
2023-04-11T17:49:47.346Z,38.95
2023-04-11T17:52:48.900Z,39.16
2023-04-11T17:55:51.450Z,39.50
2023-04-11T17:58:53.105Z,39.62
2023-04-11T18:01:56.071Z,39.88
2023-04-11T18:04:58.039Z,40.08
2023-04-11T18:08:00.343Z,40.27
2023-04-11T18:11:03.460Z,40.60
2023-04-11T18:14:05.096Z,40.89
2023-04-11T18:17:06.853Z,41.33
2023-04-11T18:20:09.243Z,41.56
2023-04-11T18:23:10.892Z,41.91
2023-04-11T18:26:12.492Z,42.38
2023-04-11T18:29:14.102Z,42.67
2023-04-11T18:32:15.871Z,43.03
2023-04-11T18:35:18.554Z,43.41
2023-04-11T18:38:20.101Z,43.78
2023-04-11T18:41:21.727Z,44.18
2023-04-11T18:44:23.441Z,44.54
2023-04-11T18:47:25.105Z,44.89
2023-04-11T18:50:28.169Z,45.14
2023-04-11T18:53:30.961Z,45.39
2023-04-11T18:56:33.171Z,45.78
2023-04-11T18:59:39.916Z,45.98
2023-04-11T19:02:43.530Z,46.19
2023-04-11T19:05:46.305Z,46.59
2023-04-11T19:08:48.289Z,46.79
2023-04-11T19:11:50.231Z,47.18
2023-04-11T19:14:51.842Z,47.37
2023-04-11T19:17:54.738Z,47.60
2023-04-11T19:20:57.182Z,47.83
2023-04-11T19:24:00.661Z,48.05
2023-04-11T19:27:10.145Z,48.17
2023-04-11T19:30:14.267Z,48.27
2023-04-11T19:33:16.708Z,48.49
2023-04-11T19:36:20.252Z,48.69
2023-04-11T19:39:22.514Z,48.85
2023-04-11T19:42:26.869Z,48.87
2023-04-11T19:45:31.166Z,48.90
2023-04-11T19:48:33.559Z,48.97
2023-04-11T19:51:35.877Z,49.28
2023-04-11T19:54:39.899Z,49.45
2023-04-11T19:57:43.656Z,49.69
2023-04-11T20:00:46.022Z,49.87
2023-04-11T20:03:47.744Z,49.94
2023-04-11T20:06:50.797Z,50.22
2023-04-11T20:09:52.649Z,50.44
2023-04-11T20:12:54.297Z,50.57
2023-04-11T20:15:56.022Z,50.76
2023-04-11T20:18:57.812Z,50.69
2023-04-11T20:22:00.837Z,50.67
2023-04-11T20:25:03.221Z,50.52
2023-04-11T20:28:04.831Z,50.31
2023-04-11T20:31:07.124Z,50.19
2023-04-11T20:34:08.805Z,50.05
2023-04-11T20:37:13.561Z,49.93
2023-04-11T20:40:15.140Z,49.70
2023-04-11T20:43:17.653Z,49.61
2023-04-11T20:46:21.757Z,49.45
2023-04-11T20:49:28.114Z,49.24
2023-04-11T20:52:30.883Z,49.17
2023-04-11T20:55:33.457Z,49.04
2023-04-11T20:58:35.215Z,48.96
2023-04-11T21:01:36.872Z,48.78
2023-04-11T21:04:38.770Z,48.63
2023-04-11T21:07:41.563Z,48.58
2023-04-11T21:10:43.146Z,48.48
2023-04-11T21:13:44.834Z,48.41
2023-04-11T21:16:46.450Z,48.32
2023-04-11T21:19:48.069Z,48.37
2023-04-11T21:22:52.955Z,48.32
2023-04-11T21:25:54.566Z,48.30
2023-04-11T21:28:56.246Z,48.26
2023-04-11T21:31:57.829Z,48.21
2023-04-11T21:34:59.600Z,48.26
2023-04-11T21:38:01.514Z,48.22
2023-04-11T21:41:03.126Z,48.29
2023-04-11T21:44:04.815Z,48.28
2023-04-11T21:47:06.486Z,48.24
2023-04-11T21:50:08.938Z,48.34
2023-04-11T21:53:10.528Z,48.29
2023-04-11T21:56:12.445Z,48.40
2023-04-11T21:59:14.058Z,48.44
2023-04-11T22:02:15.718Z,48.35
2023-04-11T22:05:18.496Z,48.40
2023-04-11T22:08:22.591Z,48.46
2023-04-11T22:11:24.964Z,48.31
2023-04-11T22:14:27.501Z,48.40
2023-04-11T22:17:30.296Z,48.45
2023-04-11T22:20:31.930Z,48.39
2023-04-11T22:23:34.312Z,48.31
2023-04-11T22:26:35.887Z,48.32
2023-04-11T22:29:37.470Z,48.20
2023-04-11T22:32:39.107Z,48.11
2023-04-11T22:35:41.162Z,47.96
2023-04-11T22:38:43.718Z,48.05
2023-04-11T22:41:47.819Z,48.01
2023-04-11T22:44:49.431Z,47.97
2023-04-11T22:47:55.618Z,47.87
2023-04-11T22:50:59.164Z,47.87
2023-04-11T22:54:01.133Z,47.73
2023-04-11T22:57:02.783Z,47.85
2023-04-11T23:00:07.126Z,47.71
2023-04-11T23:03:08.759Z,47.79
2023-04-11T23:06:11.033Z,47.77
2023-04-11T23:09:13.067Z,47.80
2023-04-11T23:12:14.645Z,47.68
2023-04-11T23:15:17.347Z,47.66
2023-04-11T23:18:19.390Z,47.66
2023-04-11T23:21:20.943Z,47.67
2023-04-11T23:24:22.518Z,47.59
2023-04-11T23:27:24.682Z,47.53
2023-04-11T23:30:26.364Z,47.67
2023-04-11T23:33:27.927Z,47.61
2023-04-11T23:36:29.719Z,47.57
2023-04-11T23:39:31.296Z,47.56
2023-04-11T23:42:32.930Z,47.51
2023-04-11T23:45:34.504Z,47.52
2023-04-11T23:48:36.047Z,47.57
2023-04-11T23:51:37.782Z,47.53
2023-04-11T23:54:39.507Z,47.53
2023-04-11T23:57:41.151Z,47.51
